Time;durP1;ratioP1;P1;durP2;ratioP2;P2;SDS_P1;SDS_P2;PMS_P1;PMS_P2;Temp;Humidity;BMP_temperature;BMP_pressure;BME280_temperature;BME280_humidity;BME280_pressure;Samples;Min_cycle;Max_cycle;Signal;HPM_P1;HPM_P2
2022/07/20 00:00:42;;;;;;;4.45;3.63;;;23.30;60.10;;;;;;4838159;29;20054;-67
2022/07/20 00:03:09;;;;;;;9.07;3.72;;;23.20;60.20;;;;;;4840634;29;20137;-67
2022/07/20 00:05:35;;;;;;;5.43;3.80;;;23.20;60.30;;;;;;4839441;29;20121;-66
2022/07/20 00:08:01;;;;;;;5.80;3.65;;;23.20;60.80;;;;;;4827862;29;20050;-67
2022/07/20 00:13:13;;;;;;;7.25;3.72;;;23.10;60.70;;;;;;4840574;29;20061;-66
2022/07/20 00:15:40;;;;;;;5.65;3.50;;;23.20;60.70;;;;;;4843281;29;20058;-67
2022/07/20 00:18:06;;;;;;;5.30;3.95;;;23.00;60.70;;;;;;4841145;29;20037;-66
2022/07/20 00:20:31;;;;;;;4.82;3.70;;;23.00;60.70;;;;;;4839841;29;20519;-67
2022/07/20 00:22:58;;;;;;;4.30;3.90;;;23.00;60.90;;;;;;4841827;29;20061;-66
2022/07/20 00:25:24;;;;;;;6.47;4.10;;;22.90;60.80;;;;;;4842839;29;20065;-67
2022/07/20 00:27:50;;;;;;;3.97;3.67;;;22.80;61.30;;;;;;4844319;29;20461;-66
2022/07/20 00:30:15;;;;;;;7.18;4.00;;;22.80;61.20;;;;;;4841919;29;20041;-67
2022/07/20 00:32:42;;;;;;;5.13;3.97;;;22.80;61.30;;;;;;4834633;29;20102;-67
2022/07/20 00:35:11;;;;;;;6.78;4.00;;;22.80;61.70;;;;;;4840982;29;20050;-67
2022/07/20 00:37:36;;;;;;;5.22;3.63;;;22.70;61.10;;;;;;4842296;29;20054;-67
2022/07/20 00:40:03;;;;;;;6.88;4.15;;;22.70;61.60;;;;;;4834043;29;20114;-67
2022/07/20 00:42:29;;;;;;;5.32;3.70;;;22.60;61.70;;;;;;4842630;29;20085;-67
2022/07/20 00:44:55;;;;;;;4.95;3.90;;;22.60;62.30;;;;;;4843648;29;20116;-66
2022/07/20 00:47:20;;;;;;;7.80;4.15;;;22.60;62.20;;;;;;4837755;29;20486;-66
2022/07/20 00:49:46;;;;;;;5.05;4.15;;;22.50;62.40;;;;;;4842305;29;20054;-66
2022/07/20 00:52:12;;;;;;;6.70;4.03;;;22.50;62.50;;;;;;4843435;29;20130;-66
2022/07/20 00:54:39;;;;;;;6.05;4.00;;;22.40;62.70;;;;;;4841770;29;20389;-67
2022/07/20 00:57:05;;;;;;;5.55;3.50;;;22.40;63.00;;;;;;4842137;29;20522;-67
2022/07/20 00:59:31;;;;;;;7.22;3.75;;;22.30;63.00;;;;;;4842223;29;20050;-67
2022/07/20 01:01:56;;;;;;;4.25;3.80;;;22.30;63.10;;;;;;4842306;29;20503;-66
2022/07/20 01:04:22;;;;;;;6.00;3.50;;;22.30;63.40;;;;;;4842437;29;20128;-67
2022/07/20 01:06:49;;;;;;;6.15;3.80;;;22.20;64.30;;;;;;4840818;29;20062;-67
2022/07/20 01:09:18;;;;;;;7.72;4.10;;;22.10;65.90;;;;;;4843349;29;20068;-67
2022/07/20 01:11:44;;;;;;;4.57;4.10;;;22.00;66.40;;;;;;4841780;29;20129;-67
2022/07/20 01:14:10;;;;;;;6.70;4.20;;;22.00;67.20;;;;;;4844463;29;20057;-67
2022/07/20 01:16:37;;;;;;;4.50;3.97;;;21.90;68.50;;;;;;4839818;29;20062;-66
2022/07/20 01:19:03;;;;;;;4.85;4.00;;;21.80;69.40;;;;;;4842488;29;20369;-67
2022/07/20 01:21:28;;;;;;;4.35;3.90;;;21.80;69.30;;;;;;4841144;29;20349;-67
2022/07/20 01:23:54;;;;;;;7.22;3.95;;;21.70;69.80;;;;;;4840334;29;20053;-67
2022/07/20 01:26:20;;;;;;;6.05;4.20;;;21.70;70.00;;;;;;4826268;29;20046;-67
2022/07/20 01:28:46;;;;;;;5.47;3.90;;;21.60;69.70;;;;;;4839901;29;20080;-67
2022/07/20 01:31:12;;;;;;;8.80;4.15;;;21.60;69.70;;;;;;4842149;29;20174;-66
2022/07/20 01:33:38;;;;;;;6.13;4.68;;;21.60;70.10;;;;;;4839120;29;20053;-67
2022/07/20 01:36:04;;;;;;;6.65;4.57;;;21.60;70.10;;;;;;4841425;29;20071;-66
2022/07/20 01:38:29;;;;;;;5.75;4.57;;;21.60;70.30;;;;;;4841317;29;20065;-67
2022/07/20 01:40:55;;;;;;;6.45;4.22;;;21.60;70.60;;;;;;4837273;29;20408;-67
2022/07/20 01:43:21;;;;;;;4.72;4.22;;;21.50;71.20;;;;;;4843748;29;20066;-67
2022/07/20 01:45:46;;;;;;;7.68;4.50;;;21.50;71.80;;;;;;4833865;29;20065;-67
2022/07/20 01:48:12;;;;;;;8.55;4.85;;;21.40;71.90;;;;;;4839882;29;20053;-67
2022/07/20 01:50:38;;;;;;;7.53;4.55;;;21.50;72.40;;;;;;4841546;29;20495;-66
2022/07/20 01:53:05;;;;;;;6.60;4.47;;;21.40;71.10;;;;;;4840322;29;20042;-67
2022/07/20 01:55:31;;;;;;;5.22;4.25;;;21.50;70.50;;;;;;4843321;29;20157;-67
2022/07/20 01:57:57;;;;;;;6.88;4.18;;;21.40;70.50;;;;;;4839415;29;20138;-67
2022/07/20 02:00:22;;;;;;;10.15;4.35;;;21.50;70.50;;;;;;4842139;29;20065;-67
2022/07/20 02:02:49;;;;;;;8.85;4.70;;;21.50;70.30;;;;;;4842934;29;20384;-67
2022/07/20 02:05:15;;;;;;;6.53;4.40;;;21.60;69.80;;;;;;4833989;29;20471;-66
2022/07/20 02:07:41;;;;;;;4.70;4.13;;;21.60;69.70;;;;;;4841103;29;20054;-67
2022/07/20 02:10:08;;;;;;;9.10;4.30;;;21.60;68.70;;;;;;4840975;29;20062;-66
2022/07/20 02:12:34;;;;;;;4.97;3.90;;;21.60;68.70;;;;;;4808263;29;20060;-67
2022/07/20 02:15:01;;;;;;;4.93;3.78;;;21.70;68.60;;;;;;4825059;29;20090;-66
2022/07/20 02:17:26;;;;;;;6.25;3.92;;;21.70;68.30;;;;;;4838851;29;20558;-67
2022/07/20 02:19:52;;;;;;;5.45;4.03;;;21.70;67.70;;;;;;4841524;29;20062;-66
2022/07/20 02:22:17;;;;;;;5.68;4.20;;;21.70;67.90;;;;;;4841508;29;20513;-67
2022/07/20 02:24:43;;;;;;;11.55;4.50;;;21.70;67.90;;;;;;4840673;29;20103;-67
2022/07/20 02:27:09;;;;;;;5.93;4.20;;;21.70;68.20;;;;;;4837506;29;20106;-66
2022/07/20 02:29:34;;;;;;;5.43;4.72;;;21.70;68.30;;;;;;4834666;29;20058;-66
2022/07/20 02:32:00;;;;;;;6.80;4.50;;;21.70;68.10;;;;;;4839288;29;20050;-66
2022/07/20 02:34:26;;;;;;;7.35;4.88;;;21.70;67.70;;;;;;4840877;29;20065;-66
2022/07/20 02:36:52;;;;;;;5.00;3.90;;;21.70;67.80;;;;;;4841176;29;20086;-67
2022/07/20 02:39:17;;;;;;;6.25;3.80;;;21.70;68.40;;;;;;4839395;29;20136;-66
2022/07/20 02:41:43;;;;;;;6.15;4.55;;;21.70;68.40;;;;;;4840598;29;20514;-66
2022/07/20 02:44:09;;;;;;;4.60;4.18;;;21.60;68.70;;;;;;4843271;29;20054;-66
2022/07/20 02:46:34;;;;;;;4.63;4.22;;;21.60;68.70;;;;;;4839568;29;20054;-67
2022/07/20 02:49:00;;;;;;;7.82;4.20;;;21.60;68.90;;;;;;4839980;29;20140;-67
2022/07/20 02:51:25;;;;;;;7.30;4.80;;;21.60;68.70;;;;;;4841778;29;20057;-66
2022/07/20 02:53:51;;;;;;;7.95;4.55;;;21.50;69.30;;;;;;4840678;29;20133;-66
2022/07/20 02:56:16;;;;;;;5.78;4.10;;;21.50;69.70;;;;;;4840400;29;20068;-67
2022/07/20 02:58:42;;;;;;;5.05;4.07;;;21.40;69.90;;;;;;4811070;29;20145;-66
2022/07/20 03:01:07;;;;;;;4.32;3.83;;;21.40;70.30;;;;;;4840746;29;20045;-67
2022/07/20 03:03:33;;;;;;;4.97;4.47;;;21.30;70.70;;;;;;4839582;29;20050;-67
2022/07/20 03:06:00;;;;;;;5.40;4.10;;;21.20;71.40;;;;;;4839995;29;20046;-67
2022/07/20 03:08:26;;;;;;;5.70;4.25;;;21.20;72.00;;;;;;4842257;29;20050;-65
2022/07/20 03:10:51;;;;;;;5.15;4.43;;;21.10;73.40;;;;;;4824716;29;20467;-66
2022/07/20 03:13:17;;;;;;;6.15;3.97;;;21.10;74.90;;;;;;4842023;29;20058;-67
2022/07/20 03:15:42;;;;;;;4.75;4.28;;;21.00;75.30;;;;;;4841090;29;20049;-66
2022/07/20 03:18:08;;;;;;;4.63;4.13;;;21.00;76.50;;;;;;4839485;29;20115;-66
2022/07/20 03:20:34;;;;;;;9.48;4.38;;;20.90;77.20;;;;;;4840399;29;20496;-66
2022/07/20 03:23:00;;;;;;;4.53;4.13;;;20.90;78.00;;;;;;4840943;29;20052;-66
2022/07/20 03:25:26;;;;;;;7.07;4.57;;;20.90;77.90;;;;;;4842061;29;20054;-66
2022/07/20 03:27:53;;;;;;;6.78;3.75;;;20.90;78.10;;;;;;4840935;29;20122;-66
2022/07/20 03:30:19;;;;;;;6.25;4.00;;;20.90;78.50;;;;;;4840093;29;20061;-67
2022/07/20 03:32:44;;;;;;;5.63;4.15;;;20.90;78.30;;;;;;4839264;29;20384;-67
2022/07/20 03:35:10;;;;;;;7.28;4.45;;;20.90;78.80;;;;;;4840059;29;20058;-66
2022/07/20 03:37:36;;;;;;;4.78;4.18;;;20.90;79.00;;;;;;4828345;29;20089;-67
2022/07/20 03:40:03;;;;;;;5.63;4.22;;;20.90;78.40;;;;;;4828748;29;20129;-66
2022/07/20 03:42:29;;;;;;;4.53;4.05;;;20.90;79.00;;;;;;4840941;29;20049;-67
2022/07/20 03:44:55;;;;;;;6.32;3.95;;;20.90;79.60;;;;;;4836131;29;20099;-67
2022/07/20 03:47:20;;;;;;;5.50;4.47;;;20.90;79.00;;;;;;4835882;29;20068;-66
2022/07/20 03:49:46;;;;;;;6.30;3.95;;;20.90;79.20;;;;;;4828002;29;20474;-66
2022/07/20 03:52:11;;;;;;;4.65;3.88;;;20.90;80.40;;;;;;4840838;29;20061;-66
2022/07/20 03:54:37;;;;;;;5.25;4.60;;;20.80;79.80;;;;;;4840543;29;20586;-67
2022/07/20 03:57:03;;;;;;;5.78;4.10;;;20.90;80.70;;;;;;4839121;29;20061;-66
2022/07/20 03:59:28;;;;;;;4.53;4.07;;;20.90;82.10;;;;;;4839153;29;20111;-66
2022/07/20 04:01:54;;;;;;;4.45;4.05;;;20.90;81.90;;;;;;4838192;29;20092;-67
2022/07/20 04:04:19;;;;;;;7.75;4.10;;;20.80;83.30;;;;;;4838617;29;20118;-67
2022/07/20 04:06:45;;;;;;;4.30;3.90;;;20.80;84.40;;;;;;4840853;29;20058;-66
2022/07/20 04:09:10;;;;;;;4.22;3.80;;;20.70;84.00;;;;;;4824100;29;20081;-67
2022/07/20 04:11:36;;;;;;;5.72;4.72;;;20.70;87.90;;;;;;4837474;29;20054;-67
2022/07/20 04:14:01;;;;;;;4.82;4.13;;;20.70;87.70;;;;;;4840490;29;20058;-66
2022/07/20 04:16:31;;;;;;;5.30;4.03;;;20.70;90.10;;;;;;4839572;29;20061;-66
2022/07/20 04:19:00;;;;;;;6.80;4.20;;;20.70;90.90;;;;;;4836100;29;20433;-66
2022/07/20 04:21:25;;;;;;;4.82;4.20;;;20.70;92.10;;;;;;4845377;29;20065;-66
2022/07/20 04:23:51;;;;;;;7.13;4.30;;;20.70;92.80;;;;;;4841881;29;20049;-66
2022/07/20 04:26:42;;;;;;;5.78;4.50;;;20.60;94.60;;;;;;4843117;29;20053;-67
2022/07/20 04:29:08;;;;;;;4.95;4.28;;;20.60;94.20;;;;;;4841599;29;20053;-67
2022/07/20 04:31:34;;;;;;;4.07;3.78;;;20.60;94.60;;;;;;4843308;29;20061;-66
2022/07/20 04:33:59;;;;;;;6.97;4.40;;;20.60;96.20;;;;;;4842009;29;20057;-66
2022/07/20 04:36:25;;;;;;;4.60;4.15;;;20.60;96.20;;;;;;4842632;29;20057;-66
2022/07/20 04:38:50;;;;;;;4.45;4.05;;;20.60;98.00;;;;;;4837859;29;20050;-67
2022/07/20 04:41:16;;;;;;;5.32;4.25;;;20.60;99.60;;;;;;4842506;29;20488;-67
2022/07/20 04:43:42;;;;;;;5.32;3.97;;;20.60;99.50;;;;;;4840491;29;20112;-67
2022/07/20 04:46:07;;;;;;;6.13;4.35;;;20.60;99.90;;;;;;4842921;29;20058;-67
2022/07/20 04:48:33;;;;;;;7.47;4.63;;;20.60;99.90;;;;;;4839948;29;20117;-67
2022/07/20 04:50:58;;;;;;;7.72;4.80;;;20.60;99.90;;;;;;4842240;29;20058;-66
2022/07/20 04:53:24;;;;;;;4.90;4.38;;;20.50;99.90;;;;;;4841693;29;20050;-66
2022/07/20 04:55:49;;;;;;;5.95;4.55;;;20.50;99.90;;;;;;4844685;29;20061;-65
2022/07/20 04:58:15;;;;;;;7.80;4.25;;;20.50;99.90;;;;;;4842713;29;20069;-66
2022/07/20 05:00:41;;;;;;;5.65;4.70;;;20.60;99.90;;;;;;4832484;29;20050;-66
2022/07/20 05:03:06;;;;;;;5.22;4.57;;;20.60;99.90;;;;;;4842354;29;20065;-67
2022/07/20 05:05:32;;;;;;;7.05;4.63;;;20.60;99.90;;;;;;4830385;29;20050;-67
2022/07/20 05:07:58;;;;;;;5.32;4.70;;;20.70;99.90;;;;;;4831136;29;20102;-66
2022/07/20 05:10:24;;;;;;;5.85;5.20;;;20.70;99.90;;;;;;4839787;29;20106;-67
2022/07/20 05:12:49;;;;;;;5.75;4.55;;;20.70;99.90;;;;;;4835925;29;20466;-67
2022/07/20 05:15:15;;;;;;;5.60;5.00;;;20.80;99.90;;;;;;4841097;29;20053;-67
2022/07/20 05:17:40;;;;;;;6.97;4.88;;;20.80;99.90;;;;;;4844104;29;20479;-66
2022/07/20 05:20:07;;;;;;;5.45;4.78;;;20.90;99.90;;;;;;4833003;29;20145;-66
2022/07/20 05:22:32;;;;;;;4.90;4.28;;;21.00;99.90;;;;;;4844024;29;20136;-66
2022/07/20 05:24:58;;;;;;;5.43;4.65;;;21.00;99.90;;;;;;4839566;29;20214;-67
2022/07/20 05:27:25;;;;;;;7.15;4.82;;;21.10;99.90;;;;;;4855686;29;20479;-67
2022/07/20 05:29:51;;;;;;;8.88;5.07;;;21.10;99.90;;;;;;4836332;29;20606;-67
2022/07/20 05:32:17;;;;;;;7.35;4.55;;;21.20;99.90;;;;;;4833858;29;20065;-66
2022/07/20 05:34:42;;;;;;;6.07;4.20;;;21.20;99.90;;;;;;4845023;29;20129;-67
2022/07/20 05:37:08;;;;;;;6.57;4.63;;;21.30;99.90;;;;;;4837533;29;20614;-66
2022/07/20 05:39:34;;;;;;;7.25;4.80;;;21.40;99.90;;;;;;4842493;29;20137;-67
2022/07/20 05:42:00;;;;;;;5.68;4.57;;;21.50;99.90;;;;;;4835053;29;20137;-67
2022/07/20 05:44:33;;;;;;;5.55;4.85;;;21.60;99.90;;;;;;4833813;29;20059;-67
2022/07/20 05:46:58;;;;;;;7.65;4.75;;;22.30;99.90;;;;;;4832553;29;20385;-68
2022/07/20 05:49:24;;;;;;;9.10;5.00;;;23.70;96.60;;;;;;4840654;29;20414;-67
2022/07/20 05:51:50;;;;;;;6.80;5.18;;;25.10;84.10;;;;;;4842571;29;20510;-67
2022/07/20 05:54:16;;;;;;;5.55;5.05;;;26.30;73.90;;;;;;4843685;29;20132;-66
2022/07/20 05:56:41;;;;;;;4.97;4.55;;;27.20;68.50;;;;;;4842212;29;20132;-66
2022/07/20 05:59:07;;;;;;;6.85;4.70;;;27.80;66.10;;;;;;4842503;29;20479;-66
2022/07/20 06:01:33;;;;;;;5.47;4.97;;;28.50;63.10;;;;;;4842838;29;20057;-66
2022/07/20 06:03:59;;;;;;;4.97;4.32;;;29.10;61.40;;;;;;4830024;29;20050;-67
2022/07/20 06:06:25;;;;;;;8.68;4.80;;;29.50;59.90;;;;;;4851302;29;20060;-67
2022/07/20 06:08:50;;;;;;;6.30;4.53;;;30.00;58.80;;;;;;4835235;29;20219;-66
2022/07/20 06:11:16;;;;;;;4.93;4.30;;;30.30;58.10;;;;;;4843750;29;20464;-67
2022/07/20 06:13:41;;;;;;;5.20;4.70;;;30.60;57.40;;;;;;4842704;29;20054;-67
2022/07/20 06:16:07;;;;;;;5.45;4.80;;;30.80;56.70;;;;;;4838588;29;20106;-67
2022/07/20 06:18:32;;;;;;;6.88;4.13;;;31.20;56.00;;;;;;4841339;29;20522;-67
2022/07/20 06:20:58;;;;;;;5.95;4.28;;;31.40;55.00;;;;;;4836947;29;20499;-67
2022/07/20 06:23:24;;;;;;;5.20;4.60;;;31.50;54.70;;;;;;4841390;29;20610;-67
2022/07/20 06:25:49;;;;;;;6.18;3.92;;;31.60;54.00;;;;;;4835938;29;20132;-67
2022/07/20 06:28:15;;;;;;;7.50;4.47;;;31.70;53.30;;;;;;4842833;29;20066;-66
2022/07/20 06:30:40;;;;;;;7.43;4.47;;;31.50;52.80;;;;;;4843090;29;20058;-67
2022/07/20 06:33:06;;;;;;;6.53;4.25;;;31.50;52.70;;;;;;4836218;29;20460;-66
2022/07/20 06:35:31;;;;;;;6.18;4.50;;;31.70;52.70;;;;;;4840938;29;20073;-67
2022/07/20 06:37:58;;;;;;;8.73;4.30;;;31.40;52.10;;;;;;4842376;29;20149;-66
2022/07/20 06:40:24;;;;;;;7.93;4.80;;;30.70;52.90;;;;;;4841800;29;20050;-67
2022/07/20 06:42:49;;;;;;;6.20;4.82;;;29.80;54.00;;;;;;4842704;29;20065;-67
2022/07/20 06:45:15;;;;;;;6.97;4.63;;;29.00;55.10;;;;;;4842458;29;20141;-68
2022/07/20 06:47:40;;;;;;;4.70;4.30;;;28.50;56.40;;;;;;4842314;29;20057;-68
2022/07/20 06:50:06;;;;;;;8.25;4.35;;;28.10;58.10;;;;;;4841518;29;20462;-68
2022/07/20 06:52:33;;;;;;;5.88;4.97;;;27.80;58.60;;;;;;4825966;29;20450;-67
2022/07/20 06:54:59;;;;;;;13.30;4.75;;;27.60;58.00;;;;;;4842587;29;20137;-67
2022/07/20 06:57:24;;;;;;;5.25;4.30;;;27.40;58.60;;;;;;4842403;29;20141;-67
2022/07/20 06:59:50;;;;;;;6.90;4.50;;;27.30;58.60;;;;;;4842708;29;20132;-67
2022/07/20 07:02:16;;;;;;;7.00;4.90;;;27.30;59.10;;;;;;4838340;29;20054;-68
2022/07/20 07:04:42;;;;;;;5.53;4.75;;;27.30;59.50;;;;;;4842368;29;20050;-67
2022/07/20 07:07:07;;;;;;;6.05;4.93;;;27.30;59.10;;;;;;4842148;29;20407;-67
2022/07/20 07:09:33;;;;;;;4.85;4.45;;;27.30;59.10;;;;;;4841293;29;20053;-68
2022/07/20 07:11:59;;;;;;;5.07;4.65;;;27.30;59.80;;;;;;4841437;29;20404;-66
2022/07/20 07:14:25;;;;;;;7.70;5.38;;;27.40;59.70;;;;;;4842408;29;20612;-67
2022/07/20 07:16:52;;;;;;;11.38;5.90;;;27.40;59.40;;;;;;4840492;29;20476;-68
2022/07/20 07:19:18;;;;;;;7.97;6.40;;;27.40;59.10;;;;;;4838697;29;20069;-67
2022/07/20 07:21:43;;;;;;;8.05;6.05;;;27.40;58.70;;;;;;4841638;29;20050;-68
2022/07/20 07:24:09;;;;;;;9.95;6.90;;;27.50;58.90;;;;;;4842023;29;20449;-67
2022/07/20 07:26:34;;;;;;;9.65;6.35;;;27.60;59.90;;;;;;4841173;29;20057;-67
2022/07/20 07:29:00;;;;;;;9.15;6.65;;;27.70;60.10;;;;;;4842364;29;20510;-67
2022/07/20 07:31:26;;;;;;;8.98;7.07;;;27.80;60.00;;;;;;4841973;29;20049;-68
2022/07/20 07:33:51;;;;;;;9.68;6.60;;;27.80;59.90;;;;;;4840521;29;20058;-67
2022/07/20 07:36:17;;;;;;;7.93;7.13;;;27.90;60.50;;;;;;4841754;29;20488;-67
2022/07/20 07:38:43;;;;;;;8.82;7.57;;;28.00;61.20;;;;;;4840499;29;20122;-68
2022/07/20 07:41:08;;;;;;;15.10;7.50;;;28.10;61.00;;;;;;4856076;29;20121;-66
2022/07/20 07:43:34;;;;;;;13.48;8.55;;;28.20;61.20;;;;;;4841739;29;20061;-67
2022/07/20 07:46:00;;;;;;;10.38;8.27;;;28.20;61.30;;;;;;4842770;29;20159;-68
2022/07/20 07:48:25;;;;;;;11.02;8.73;;;28.10;61.80;;;;;;4841482;29;20061;-67
2022/07/20 07:50:52;;;;;;;12.13;8.32;;;28.30;62.50;;;;;;4842224;29;20503;-68
2022/07/20 07:53:17;;;;;;;13.35;9.02;;;28.20;62.90;;;;;;4843440;29;20068;-67
2022/07/20 07:55:43;;;;;;;14.18;9.07;;;28.30;63.50;;;;;;4845878;29;20053;-67
2022/07/20 07:58:11;;;;;;;12.38;9.57;;;28.40;64.20;;;;;;4844923;29;20061;-68
2022/07/20 08:00:38;;;;;;;13.02;9.40;;;28.30;65.10;;;;;;4859415;29;20450;-67
2022/07/20 08:03:04;;;;;;;16.50;11.98;;;28.50;66.40;;;;;;4827932;29;20062;-67
2022/07/20 08:05:31;;;;;;;16.55;12.82;;;28.50;67.40;;;;;;4844109;29;20396;-67
2022/07/20 08:07:56;;;;;;;13.55;11.93;;;28.60;67.90;;;;;;4843907;29;20068;-67
2022/07/20 08:10:22;;;;;;;15.38;12.75;;;28.50;69.10;;;;;;4845555;29;20058;-67
2022/07/20 08:12:48;;;;;;;18.27;13.85;;;28.60;70.10;;;;;;4843698;29;20054;-68
2022/07/20 08:15:15;;;;;;;15.73;13.95;;;28.60;72.80;;;;;;4840313;29;20060;-67
2022/07/20 08:17:46;;;;;;;17.17;14.48;;;28.70;75.50;;;;;;4845025;29;20118;-67
2022/07/20 08:20:12;;;;;;;17.50;15.45;;;28.60;77.80;;;;;;4857011;29;20061;-68
2022/07/20 08:22:37;;;;;;;19.90;15.25;;;28.60;80.50;;;;;;4844075;29;20049;-68
2022/07/20 08:25:03;;;;;;;24.58;16.15;;;28.60;84.60;;;;;;4844356;29;20053;-67
2022/07/20 08:27:29;;;;;;;19.63;16.25;;;28.70;88.20;;;;;;4844549;29;20058;-68
2022/07/20 08:29:58;;;;;;;22.23;16.10;;;28.80;90.80;;;;;;4844889;29;20141;-68
2022/07/20 08:32:25;;;;;;;19.27;17.13;;;28.80;92.30;;;;;;4844429;29;20057;-67
2022/07/20 08:34:51;;;;;;;20.58;16.35;;;28.90;93.70;;;;;;4843549;29;20512;-67
2022/07/20 08:37:16;;;;;;;25.20;17.77;;;29.00;95.90;;;;;;4844517;29;20472;-67
2022/07/20 08:39:42;;;;;;;22.17;17.27;;;29.00;94.90;;;;;;4843858;29;20073;-68
2022/07/20 08:42:09;;;;;;;21.15;18.83;;;29.10;93.90;;;;;;4842636;29;20058;-67
2022/07/20 08:44:34;;;;;;;22.50;18.42;;;29.20;93.40;;;;;;4834223;29;20524;-68
2022/07/20 08:47:01;;;;;;;22.88;17.88;;;29.00;95.50;;;;;;4839538;29;20149;-68
2022/07/20 08:49:28;;;;;;;23.48;18.48;;;29.20;97.50;;;;;;4843979;29;20522;-68
2022/07/20 08:51:53;;;;;;;22.45;18.92;;;29.40;97.40;;;;;;4844236;29;20057;-68
2022/07/20 08:54:19;;;;;;;21.27;18.80;;;29.50;96.50;;;;;;4857048;29;20201;-67
2022/07/20 08:56:45;;;;;;;26.92;19.83;;;29.40;97.20;;;;;;4843674;29;20136;-68
2022/07/20 08:59:10;;;;;;;25.33;19.33;;;29.40;96.30;;;;;;4840395;29;20046;-67
2022/07/20 09:01:56;;;;;;;22.77;19.33;;;29.30;96.60;;;;;;4842925;29;20540;-67
2022/07/20 09:04:22;;;;;;;23.13;19.52;;;29.40;98.70;;;;;;4841159;29;20064;-68
2022/07/20 09:06:49;;;;;;;27.77;21.20;;;29.40;98.50;;;;;;4843724;29;20046;-68
2022/07/20 09:09:16;;;;;;;25.00;21.40;;;29.50;97.00;;;;;;4842068;29;20490;-68
2022/07/20 09:11:42;;;;;;;30.13;22.02;;;29.40;94.90;;;;;;4843567;29;20062;-67
2022/07/20 09:14:07;;;;;;;25.23;21.83;;;29.30;92.90;;;;;;4842691;29;20058;-67
2022/07/20 09:16:43;;;;;;;25.27;22.25;;;29.40;92.70;;;;;;4840613;29;20568;-67
2022/07/20 09:19:09;;;;;;;28.80;22.60;;;29.40;93.40;;;;;;4840357;29;20207;-67
2022/07/20 09:21:34;;;;;;;26.77;24.08;;;29.40;92.90;;;;;;4843172;29;20133;-67
2022/07/20 09:24:05;;;;;;;27.42;24.48;;;29.30;91.40;;;;;;4835604;29;20057;-67
2022/07/20 09:26:32;;;;;;;29.38;24.08;;;29.30;89.60;;;;;;4835399;29;20407;-67
2022/07/20 09:29:00;;;;;;;27.15;23.02;;;29.20;91.10;;;;;;4843669;29;20538;-67
2022/07/20 09:31:37;;;;;;;30.10;23.85;;;29.20;90.40;;;;;;4844529;29;20053;-67
2022/07/20 09:34:12;;;;;;;29.38;23.70;;;29.10;91.00;;;;;;4843720;29;20069;-67
2022/07/20 09:36:46;;;;;;;28.55;23.45;;;29.20;90.60;;;;;;4843503;29;20050;-67
2022/07/20 09:39:14;;;;;;;26.65;22.25;;;29.40;89.20;;;;;;4841759;29;20111;-67
2022/07/20 09:42:01;;;;;;;26.25;23.52;;;29.40;87.50;;;;;;4835865;29;20050;-67
2022/07/20 09:44:28;;;;;;;25.00;22.17;;;29.40;84.70;;;;;;4837832;29;20515;-67
2022/07/20 09:46:55;;;;;;;30.25;22.23;;;29.40;82.60;;;;;;4837018;29;20731;-67
2022/07/20 09:49:28;;;;;;;24.30;21.75;;;29.40;80.70;;;;;;4843889;29;20356;-66
2022/07/20 09:51:58;;;;;;;24.15;20.90;;;29.40;78.20;;;;;;4834837;29;20326;-67
2022/07/20 09:54:24;;;;;;;25.60;20.95;;;29.30;78.50;;;;;;4842937;29;20054;-67
2022/07/20 09:56:51;;;;;;;23.60;20.25;;;29.40;79.00;;;;;;4841862;29;20118;-67
2022/07/20 09:59:19;;;;;;;25.65;19.45;;;29.30;76.90;;;;;;4841758;29;20065;-67
2022/07/20 10:01:47;;;;;;;21.17;17.98;;;29.30;73.50;;;;;;4839850;29;20062;-67
2022/07/20 10:04:15;;;;;;;21.88;17.27;;;29.10;70.20;;;;;;4842617;29;20408;-67
2022/07/20 10:06:44;;;;;;;23.38;18.58;;;29.00;68.80;;;;;;4843426;29;20457;-67
2022/07/20 10:09:11;;;;;;;25.67;18.55;;;29.20;67.80;;;;;;4843073;29;20525;-67
2022/07/20 10:11:37;;;;;;;20.63;17.40;;;29.20;67.30;;;;;;4842862;29;20518;-67
2022/07/20 10:14:04;;;;;;;22.25;18.10;;;29.20;66.80;;;;;;4843243;29;20058;-67
2022/07/20 10:16:38;;;;;;;18.75;16.85;;;29.20;66.60;;;;;;4836241;29;20408;-67
2022/07/20 10:19:06;;;;;;;18.27;16.40;;;29.30;67.00;;;;;;4837170;29;20464;-67
2022/07/20 10:21:48;;;;;;;18.73;16.10;;;29.40;67.40;;;;;;4842574;29;20057;-67
2022/07/20 10:24:21;;;;;;;19.98;14.77;;;29.50;64.50;;;;;;4842822;29;20137;-67
2022/07/20 10:26:49;;;;;;;16.35;14.77;;;29.50;64.00;;;;;;4840354;29;20396;-67
2022/07/20 10:29:45;;;;;;;16.02;14.43;;;29.50;64.70;;;;;;4836667;29;20088;-67
2022/07/20 10:32:16;;;;;;;17.20;15.38;;;29.40;62.90;;;;;;4823270;29;20050;-67
2022/07/20 10:34:46;;;;;;;17.10;15.38;;;29.50;63.10;;;;;;4824819;29;20069;-67
2022/07/20 10:37:21;;;;;;;23.10;14.23;;;29.50;63.00;;;;;;4807927;29;20065;-68
2022/07/20 10:39:47;;;;;;;15.77;14.18;;;29.50;61.30;;;;;;4823736;29;20074;-67
2022/07/20 10:42:35;;;;;;;15.73;13.95;;;29.50;61.90;;;;;;4839222;29;20499;-68
2022/07/20 10:45:19;;;;;;;15.70;13.18;;;29.60;61.60;;;;;;4841097;29;20054;-67
2022/07/20 10:47:49;;;;;;;15.45;13.20;;;29.70;60.60;;;;;;4842198;29;20058;-67
2022/07/20 10:50:37;;;;;;;14.93;13.30;;;29.60;61.50;;;;;;4837858;29;20538;-67
2022/07/20 10:53:15;;;;;;;17.80;13.07;;;29.60;61.50;;;;;;4834038;29;20058;-68
2022/07/20 10:55:41;;;;;;;12.90;11.70;;;29.70;61.20;;;;;;4842703;29;20060;-68
2022/07/20 10:58:13;;;;;;;14.38;12.25;;;29.70;62.00;;;;;;4842474;29;20128;-67
2022/07/20 11:00:40;;;;;;;15.77;12.02;;;29.90;62.10;;;;;;4842435;29;20500;-67
2022/07/20 11:03:20;;;;;;;13.93;12.05;;;30.00;61.90;;;;;;4840456;29;20054;-67
2022/07/20 11:05:47;;;;;;;13.38;12.05;;;30.10;61.60;;;;;;4835881;29;20160;-67
2022/07/20 11:08:13;;;;;;;16.17;12.02;;;30.10;61.10;;;;;;4842113;29;20074;-67
2022/07/20 11:10:41;;;;;;;13.20;11.23;;;30.10;61.80;;;;;;4840252;29;20124;-67
2022/07/20 11:13:09;;;;;;;13.40;11.43;;;30.10;61.80;;;;;;4841397;29;20519;-67
2022/07/20 11:15:49;;;;;;;12.52;10.38;;;30.00;61.30;;;;;;4841395;29;20102;-66
2022/07/20 11:18:22;;;;;;;12.82;9.90;;;30.10;60.20;;;;;;4834421;29;20065;-66
2022/07/20 11:20:53;;;;;;;15.05;11.10;;;30.10;60.10;;;;;;4842323;29;20058;-67
2022/07/20 11:23:23;;;;;;;14.10;10.40;;;30.10;60.40;;;;;;4825627;29;20066;-67
2022/07/20 11:25:55;;;;;;;13.38;10.23;;;30.10;60.20;;;;;;4842373;29;20069;-67
2022/07/20 11:28:29;;;;;;;17.50;9.82;;;30.10;60.20;;;;;;4839485;29;20236;-67
2022/07/20 11:30:56;;;;;;;12.10;10.32;;;30.20;60.00;;;;;;4824297;29;20418;-68
2022/07/20 11:33:34;;;;;;;12.35;10.63;;;30.20;60.20;;;;;;4823170;29;20657;-68
2022/07/20 11:36:03;;;;;;;12.38;10.40;;;30.10;60.70;;;;;;4841780;29;20049;-68
2022/07/20 11:38:37;;;;;;;12.73;9.73;;;30.30;61.40;;;;;;4841473;29;20400;-67
2022/07/20 11:41:05;;;;;;;12.07;10.35;;;30.40;60.60;;;;;;4840399;29;20053;-67
2022/07/20 11:43:31;;;;;;;14.05;10.20;;;30.40;59.80;;;;;;4841836;29;20064;-67
2022/07/20 11:46:26;;;;;;;11.30;9.98;;;30.40;60.20;;;;;;4841583;29;20415;-68
2022/07/20 11:49:00;;;;;;;11.98;9.73;;;30.40;59.00;;;;;;4838749;29;20054;-68
2022/07/20 11:51:30;;;;;;;11.27;10.07;;;30.40;60.70;;;;;;4823769;29;20062;-67
2022/07/20 11:53:56;;;;;;;12.85;9.73;;;30.50;59.90;;;;;;4849856;29;20073;-67
2022/07/20 11:56:24;;;;;;;10.48;9.38;;;30.50;60.20;;;;;;4840240;29;20062;-68
2022/07/20 11:58:52;;;;;;;12.43;9.43;;;30.50;59.70;;;;;;4841578;29;20093;-68
2022/07/20 12:01:29;;;;;;;10.52;8.88;;;30.40;58.80;;;;;;4839898;29;20092;-68
2022/07/20 12:04:00;;;;;;;11.50;9.15;;;30.30;57.70;;;;;;4840137;29;20087;-68
2022/07/20 12:06:28;;;;;;;10.98;9.02;;;30.20;58.00;;;;;;4842105;29;20133;-69
2022/07/20 12:09:12;;;;;;;12.65;8.50;;;30.40;58.70;;;;;;4841551;29;20408;-68
2022/07/20 12:11:59;;;;;;;11.10;8.30;;;30.20;58.10;;;;;;4841568;29;20054;-68
2022/07/20 12:14:30;;;;;;;13.57;7.95;;;30.30;59.00;;;;;;4841686;29;20135;-68
2022/07/20 12:17:08;;;;;;;7.68;6.88;;;30.30;58.20;;;;;;4839163;29;20085;-68
2022/07/20 12:19:34;;;;;;;11.13;7.60;;;30.30;57.90;;;;;;4838524;29;20046;-69
2022/07/20 12:22:00;;;;;;;9.95;7.82;;;30.30;57.90;;;;;;4840784;29;20102;-68
2022/07/20 12:24:26;;;;;;;9.85;7.15;;;30.40;57.40;;;;;;4841909;29;20056;-68
2022/07/20 12:27:04;;;;;;;8.48;7.22;;;30.50;56.80;;;;;;4834662;29;20128;-68
2022/07/20 12:29:30;;;;;;;10.32;6.57;;;30.50;56.80;;;;;;4841651;29;20062;-67
2022/07/20 12:32:04;;;;;;;8.40;6.80;;;30.50;56.60;;;;;;4837383;29;20149;-67
2022/07/20 12:34:33;;;;;;;9.38;6.60;;;30.50;56.00;;;;;;4840272;29;20058;-68
2022/07/20 12:36:58;;;;;;;7.97;6.90;;;30.50;55.80;;;;;;4840407;29;20126;-67
2022/07/20 12:39:42;;;;;;;11.98;6.78;;;30.40;55.50;;;;;;4841544;29;20518;-65
2022/07/20 12:42:23;;;;;;;9.35;6.95;;;30.20;54.90;;;;;;4844902;29;20141;-67
2022/07/20 12:45:02;;;;;;;7.75;7.05;;;30.20;55.80;;;;;;4843411;29;20095;-67